Observations for BRISTOL LULSGATE, United Kingdom (EGGD)

EGGD 280520Z AUTO 01005KT 0150 R27/0650 FG VV/// 15/15 Q0998 RERA   
EGGD 280450Z AUTO 36005KT 0100 R27/0350 FG VV/// 15/15 Q0998
EGGD 280420Z AUTO 33004KT 0100 R27/0350 FG VV/// 15/15 Q0999
EGGD 280350Z AUTO VRB03KT 0250 R27/0650 FG VV/// 15/15 Q0999
EGGD 280320Z AUTO 29004KT 0600 R27/P1500 FG BKN001 OVC011 15/15 Q0999   
EGGD 280250Z AUTO 30003KT 1100 BR BKN003/// OVC008/// //////TCU 15/15 Q0999 
EGGD 280220Z AUTO 28003KT 1000 R27/P1500 BR BKN007 BKN026 15/15 Q0999   
EGGD 280150Z AUTO 27003KT 0300 R27/0500 FG FEW002/// SCT019/// //////TCU 15/15 Q1000
EGGD 280120Z AUTO 30002KT 0250 R27/P1500 FG NCD 15/15 Q1000 
EGGD 280050Z AUTO VRB02KT 1200 R27/P1500 -DZ SCT025 15/15 Q1001 RERA REDZ   
EGGD 280020Z AUTO VRB02KT 3700 -RA BKN018/// OVC025/// //////TCU 15/15 Q1001 RERA   
EGGD 272350Z AUTO 27001KT 4300 RA BKN019/// OVC024/// //////CB 15/15 Q1001  
EGGD 272320Z AUTO 00000KT 5000 -RA FEW008/// OVC020/// //////TCU 15/15 Q1002
EGGD 272250Z AUTO VRB01KT 6000 -RA OVC019/// //////TCU 15/15 Q1002 RERA 
EGGD 272220Z AUTO 00000KT 4100 RA OVC018/// //////TCU 16/15 Q1002   
EGGD 272150Z AUTO 00000KT 8000 -RA OVC019 16/15 Q1002   
EGGD 272120Z AUTO VRB01KT 9999 -RA BKN018 OVC032 16/15 Q1002
EGGD 272050Z AUTO VRB01KT 9999 OVC019 16/15 Q1002   
EGGD 272020Z AUTO VRB02KT 9999 OVC021 16/15 Q1003   
EGGD 271950Z AUTO 10001KT 9999 OVC021 17/15 Q1003   
EGGD 271920Z AUTO VRB02KT 9999 OVC026 17/14 Q1003   
EGGD 271850Z AUTO 00000KT 9999 -RA OVC026 17/14 Q1003   
EGGD 271820Z AUTO 28003KT 9999 OVC025 16/15 Q1003   
EGGD 271750Z AUTO 32004KT 9999 -RA OVC024 16/14 Q1003   
EGGD 271720Z AUTO 29004KT 9999 OVC024 17/14 Q1004   
EGGD 271650Z AUTO 29004KT 9999 OVC024 17/14 Q1004   
EGGD 271620Z AUTO 30005KT 9999 OVC024 17/13 Q1004   
EGGD 271550Z AUTO 28005KT 9999 OVC025 17/13 Q1004   
EGGD 271520Z AUTO VRB03KT 9999 OVC025 18/13 Q1005   
EGGD 271450Z AUTO VRB02KT 9999 OVC025 18/12 Q1005   
EGGD 271420Z AUTO 13003KT 9999 OVC026 18/12 Q1005   
EGGD 271350Z AUTO 09004KT 060V130 9999 OVC027 18/12 Q1005   
EGGD 271320Z AUTO VRB03KT 9999 BKN028/// OVC035/// 18/12 Q1005  
EGGD 271250Z AUTO VRB03KT 9999 BKN024 OVC032 18/12 Q1006
EGGD 271220Z AUTO VRB02KT 9999 OVC027 18/12 Q1006   
EGGD 271150Z AUTO VRB03KT 9999 BKN027 OVC031 17/12 Q1006
EGGD 271120Z AUTO VRB02KT 9999 BKN028 OVC036 17/12 Q1006
EGGD 271050Z AUTO VRB02KT 9999 OVC029 17/11 Q1007   
EGGD 271020Z AUTO VRB03KT 9999 OVC031 16/11 Q1007   
EGGD 270950Z AUTO 10004KT 050V140 9999 OVC038 16/11 Q1007   
EGGD 270920Z AUTO VRB03KT 9999 OVC039 16/11 Q1007   
EGGD 270850Z AUTO 08004KT 030V100 9999 OVC030 15/10 Q1007   
EGGD 270820Z AUTO 08004KT 9999 OVC031 15/10 Q1008   
EGGD 270750Z AUTO 10004KT 9999 OVC034 14/09 Q1008   
EGGD 270720Z AUTO 11005KT 9999 OVC037 14/09 Q1008   
EGGD 270650Z AUTO 10004KT 9999 OVC035 14/09 Q1008   
EGGD 270620Z AUTO 10007KT 9999 BKN040 OVC048 14/10 Q1008
EGGD 270550Z AUTO 10007KT 9999 OVC036 14/10 Q1008   
EGGD 270520Z AUTO 10005KT 9999 OVC037 14/10 Q1008   
EGGD 270450Z AUTO 10007KT 9999 OVC037 14/11 Q1009